Time;durP1;ratioP1;P1;durP2;ratioP2;P2;SDS_P1;SDS_P2;PMS_P1;PMS_P2;Temp;Humidity;BMP_temperature;BMP_pressure;BME280_temperature;BME280_humidity;BME280_pressure;Samples;Min_cycle;Max_cycle;Signal;HPM_P1;HPM_P2
2023/08/24 00:07:48;;;;;;;11.90;5.18;;;;;;;25.38;69.50;100292.94;31348783;28;20068;-76
2023/08/24 00:22:50;;;;;;;10.10;4.82;;;;;;;25.30;69.35;100287.16;31346018;28;20045;-77
2023/08/24 00:37:56;;;;;;;8.18;4.13;;;;;;;25.28;70.29;100288.94;31343844;28;20140;-78
2023/08/24 00:52:58;;;;;;;19.67;5.15;;;;;;;25.29;70.29;100296.75;31316594;28;20053;-75
2023/08/24 01:08:00;;;;;;;7.18;3.83;;;;;;;25.11;71.14;100302.94;31302942;28;20055;-75
2023/08/24 01:23:36;;;;;;;10.65;4.30;;;;;;;24.97;72.33;100304.06;31306589;28;20141;-77
2023/08/24 01:38:40;;;;;;;7.00;3.50;;;;;;;24.78;71.37;100310.19;31306763;28;20303;-76
2023/08/24 01:53:49;;;;;;;7.28;3.50;;;;;;;24.78;70.89;100310.19;31311274;28;20086;-77
2023/08/24 02:08:52;;;;;;;7.50;3.28;;;;;;;24.63;71.60;100309.72;31333621;28;20049;-78
2023/08/24 02:23:54;;;;;;;5.97;2.92;;;;;;;24.39;72.96;100317.88;31349272;28;20421;-78
2023/08/24 02:38:56;;;;;;;7.32;4.00;;;;;;;24.12;74.43;100325.72;31365466;28;20052;-76
2023/08/24 02:53:58;;;;;;;9.77;4.18;;;;;;;24.12;75.40;100338.81;31363187;28;20083;-75
2023/08/24 03:09:03;;;;;;;7.05;4.00;;;;;;;24.01;77.23;100345.16;31346891;28;20499;-77
2023/08/24 03:24:06;;;;;;;8.02;4.30;;;;;;;24.13;79.08;100346.63;31345705;28;20132;-76
2023/08/24 03:39:08;;;;;;;10.43;4.80;;;;;;;24.34;78.97;100363.03;31348215;28;20045;-76
2023/08/24 03:54:10;;;;;;;9.57;4.95;;;;;;;24.63;78.56;100365.22;31361599;28;20068;-78
2023/08/24 04:09:12;;;;;;;16.08;5.60;;;;;;;24.75;78.79;100380.59;31371865;28;20056;-78
2023/08/24 04:24:14;;;;;;;8.23;5.05;;;;;;;25.17;78.75;100381.47;31369301;28;20143;-78
2023/08/24 04:39:18;;;;;;;11.80;5.90;;;;;;;25.56;77.91;100386.03;31379470;28;20120;-78
2023/08/24 04:54:21;;;;;;;9.68;6.15;;;;;;;26.07;76.50;100374.03;31379588;28;20044;-78
2023/08/24 05:09:23;;;;;;;21.50;8.53;;;;;;;26.68;76.78;100392.19;31363389;28;20084;-79
2023/08/24 05:24:25;;;;;;;11.50;6.20;;;;;;;27.42;74.86;100384.41;31353540;28;20052;-76
2023/08/24 05:39:27;;;;;;;12.53;7.07;;;;;;;28.56;68.38;100386.38;31346359;28;20048;-77
2023/08/24 05:54:38;;;;;;;9.90;4.63;;;;;;;29.11;66.45;100389.34;31354361;28;20103;-77
2023/08/24 06:09:44;;;;;;;9.25;4.03;;;;;;;29.91;61.60;100396.19;31341784;28;20041;-78
2023/08/24 06:24:46;;;;;;;6.55;3.83;;;;;;;30.61;57.28;100399.00;31332596;28;20052;-77
2023/08/24 06:39:48;;;;;;;7.07;3.30;;;;;;;31.38;52.75;100414.88;31336444;28;20099;-79
2023/08/24 06:54:53;;;;;;;10.65;2.15;;;;;;;31.21;49.80;100406.22;31324137;28;20073;-90
2023/08/24 07:10:01;;;;;;;5.35;2.05;;;;;;;32.12;47.27;100403.59;31364914;28;20091;-78
2023/08/24 07:25:05;;;;;;;4.22;2.22;;;;;;;33.35;43.73;100399.19;31351936;28;20049;-80
2023/08/24 07:40:11;;;;;;;5.05;2.75;;;;;;;33.60;42.95;100390.75;31361525;28;20111;-77
2023/08/24 07:55:17;;;;;;;8.03;2.20;;;;;;;33.98;42.16;100390.53;31336520;28;20052;-78
2023/08/24 08:10:21;;;;;;;5.50;3.08;;;;;;;34.54;39.88;100385.31;31362350;28;20043;-82
2023/08/24 08:25:23;;;;;;;5.35;3.33;;;;;;;35.47;39.90;100384.34;31367725;28;20099;-77
2023/08/24 08:40:30;;;;;;;6.85;2.10;;;;;;;36.59;37.86;100384.41;31355848;28;20076;-78
2023/08/24 08:55:32;;;;;;;3.08;2.08;;;;;;;35.45;37.58;100363.69;31337168;28;20064;-75
2023/08/24 09:10:37;;;;;;;4.15;1.90;;;;;;;36.25;37.44;100356.41;31320075;28;20441;-78
2023/08/24 09:25:49;;;;;;;8.45;3.60;;;;;;;34.90;38.80;100361.44;31325161;28;20141;-85
2023/08/24 09:40:53;;;;;;;5.30;2.78;;;;;;;35.36;38.39;100351.03;31327665;28;20079;-86
2023/08/24 09:56:06;;;;;;;4.57;2.40;;;;;;;35.27;40.16;100340.41;31343158;28;20391;-81
2023/08/24 10:11:13;;;;;;;6.80;2.97;;;;;;;34.09;40.08;100339.34;31325145;28;20056;-78
2023/08/24 10:26:17;;;;;;;2.70;1.90;;;;;;;36.28;37.85;100310.75;31328545;28;20088;-78
2023/08/24 10:41:20;;;;;;;3.95;2.10;;;;;;;34.90;38.96;100319.13;31344648;28;20056;-83
2023/08/24 11:12:29;;;;;;;8.40;4.20;;;;;;;36.23;37.21;100301.19;31339807;28;20048;-78
2023/08/24 11:27:35;;;;;;;5.97;2.47;;;;;;;35.15;39.90;100277.41;31343271;28;20080;-77
2023/08/24 11:42:37;;;;;;;5.38;2.05;;;;;;;35.73;38.00;100274.78;31345265;28;20088;-77
2023/08/24 11:57:39;;;;;;;5.68;2.33;;;;;;;35.03;38.17;100260.25;31344312;28;20141;-79
2023/08/24 12:12:44;;;;;;;2.75;1.90;;;;;;;34.93;37.96;100244.66;31362711;28;20059;-79
2023/08/24 12:27:47;;;;;;;5.38;2.60;;;;;;;33.88;38.78;100234.78;31355701;28;20053;-77
2023/08/24 12:42:49;;;;;;;5.55;2.72;;;;;;;33.94;39.08;100226.84;31352809;28;20055;-78
2023/08/24 12:57:52;;;;;;;6.00;2.72;;;;;;;33.74;39.25;100208.28;31343231;28;20052;-76
2023/08/24 13:12:56;;;;;;;5.00;2.60;;;;;;;33.58;38.26;100201.28;31341261;28;20106;-78
2023/08/24 13:27:58;;;;;;;6.10;3.92;;;;;;;33.02;38.79;100181.88;31364342;28;20075;-86
2023/08/24 13:43:00;;;;;;;3.63;2.55;;;;;;;32.95;39.03;100170.69;31374483;28;20100;-83
2023/08/24 13:58:02;;;;;;;3.70;2.65;;;;;;;32.74;39.30;100160.50;31341670;28;20519;-77
2023/08/24 14:13:04;;;;;;;7.38;2.88;;;;;;;32.58;40.32;100161.16;31330317;28;20558;-77
2023/08/24 14:28:06;;;;;;;6.15;3.28;;;;;;;32.61;40.57;100160.75;31342077;28;20049;-79
2023/08/24 14:43:13;;;;;;;6.25;2.90;;;;;;;32.63;39.77;100151.75;31360351;28;20152;-78
2023/08/24 14:58:15;;;;;;;6.30;3.00;;;;;;;32.28;40.88;100156.44;31345047;28;20409;-81
2023/08/24 15:13:27;;;;;;;7.90;5.82;;;;;;;32.10;41.02;100141.53;31341826;28;20067;-78
2023/08/24 15:28:37;;;;;;;4.80;3.38;;;;;;;32.02;41.25;100135.94;31330579;28;20155;-81
2023/08/24 15:43:43;;;;;;;4.35;2.72;;;;;;;31.74;42.18;100144.63;31363104;28;20095;-81
2023/08/24 15:58:45;;;;;;;5.10;2.58;;;;;;;31.46;41.92;100137.94;31347704;28;20081;-79
2023/08/24 16:13:47;;;;;;;5.80;2.90;;;;;;;31.37;42.10;100134.97;31343287;28;20069;-76
2023/08/24 16:28:50;;;;;;;6.80;3.25;;;;;;;31.13;42.53;100133.50;31344546;28;20084;-79
2023/08/24 16:43:54;;;;;;;11.52;7.65;;;;;;;30.84;43.41;100127.28;31352873;28;20067;-82
2023/08/24 16:58:56;;;;;;;8.02;3.92;;;;;;;30.58;44.09;100153.59;31374828;28;20525;-81
2023/08/24 17:13:58;;;;;;;8.50;4.05;;;;;;;30.27;45.68;100157.56;31388497;28;20129;-82
2023/08/24 17:29:03;;;;;;;7.75;4.40;;;;;;;30.08;46.08;100169.06;31363456;28;20454;-81
2023/08/24 17:44:07;;;;;;;5.22;3.28;;;;;;;30.11;45.82;100174.31;31354250;28;20083;-75
2023/08/24 17:59:09;;;;;;;54.22;31.58;;;;;;;30.05;45.90;100186.97;31337022;28;20049;-80
2023/08/24 18:14:11;;;;;;;7.60;3.60;;;;;;;30.15;45.70;100174.72;31370923;28;20049;-79
2023/08/24 18:29:14;;;;;;;10.90;5.85;;;;;;;29.97;46.96;100175.72;31359329;28;20043;-80
2023/08/24 18:44:17;;;;;;;5.57;3.72;;;;;;;29.55;47.77;100179.91;31351098;28;20053;-80
2023/08/24 18:59:20;;;;;;;13.68;9.85;;;;;;;29.52;48.98;100171.34;31389269;28;20072;-79
2023/08/24 19:14:25;;;;;;;11.23;7.10;;;;;;;29.60;49.95;100170.63;31394849;28;20451;-81
2023/08/24 19:29:30;;;;;;;11.75;7.05;;;;;;;29.57;49.79;100166.13;31385606;28;20073;-79
2023/08/24 19:44:34;;;;;;;17.23;9.75;;;;;;;29.53;50.77;100160.88;31405273;28;20573;-78
2023/08/24 19:59:36;;;;;;;11.80;5.68;;;;;;;29.43;51.98;100157.84;31399331;28;20368;-76
2023/08/24 20:14:38;;;;;;;19.42;11.70;;;;;;;29.40;52.76;100147.75;31371091;28;20568;-78
2023/08/24 20:29:39;;;;;;;9.77;5.80;;;;;;;29.34;53.80;100161.09;31391308;28;20572;-80
2023/08/24 20:44:45;;;;;;;20.17;12.13;;;;;;;29.27;55.31;100156.22;31387026;28;20793;-80
2023/08/24 20:59:48;;;;;;;27.77;11.23;;;;;;;28.87;59.36;100168.91;31429451;28;20528;-80
2023/08/24 21:14:50;;;;;;;40.63;19.27;;;;;;;28.58;61.20;100160.41;31363551;28;20090;-78
2023/08/24 21:29:52;;;;;;;33.77;14.47;;;;;;;28.65;62.57;100159.72;31361144;28;20072;-79
2023/08/24 21:44:56;;;;;;;30.55;12.10;;;;;;;28.45;64.97;100169.56;31371629;28;20045;-79
2023/08/24 21:59:58;;;;;;;27.40;11.30;;;;;;;28.38;64.98;100158.28;31375902;28;20045;-80
2023/08/24 22:15:01;;;;;;;27.17;10.00;;;;;;;28.42;64.09;100153.13;31368767;28;20083;-78
2023/08/24 22:30:05;;;;;;;;;;;;;;;28.45;61.34;100136.06;31374715;28;20049;-78
2023/08/24 22:45:09;;;;;;;23.27;11.48;;;;;;;28.12;61.91;100143.06;31378357;28;19993;-78
2023/08/24 23:00:11;;;;;;;25.33;11.10;;;;;;;27.74;70.11;100125.09;31400180;28;20055;-79
2023/08/24 23:15:13;;;;;;;24.60;11.77;;;;;;;27.55;72.22;100110.50;31394765;28;20391;-79
2023/08/24 23:30:16;;;;;;;32.50;15.57;;;;;;;27.58;72.38;100113.00;31401022;28;20079;-79
2023/08/24 23:45:19;;;;;;;25.67;14.30;;;;;;;27.49;68.01;100105.78;31389638;28;20060;-78
